createdAt,value
2018-11-27T00:01:06.407Z,31.27
2018-11-27T00:03:40.735Z,28.80
2018-11-27T00:06:09.904Z,31.20
2018-11-27T00:08:39.175Z,29.00
2018-11-27T00:11:08.384Z,25.13
2018-11-27T00:13:37.633Z,24.87
2018-11-27T00:16:06.996Z,25.83
2018-11-27T00:18:36.244Z,30.40
2018-11-27T00:21:05.641Z,27.97
2018-11-27T00:23:34.864Z,28.40
2018-11-27T00:26:04.121Z,27.10
2018-11-27T00:28:33.892Z,26.97
2018-11-27T00:31:03.085Z,29.60
2018-11-27T00:33:32.312Z,28.87
2018-11-27T00:36:01.488Z,27.37
2018-11-27T00:38:30.592Z,31.77
2018-11-27T00:40:59.940Z,27.77
2018-11-27T00:43:29.080Z,32.60
2018-11-27T00:45:58.405Z,28.17
2018-11-27T00:48:27.755Z,26.20
2018-11-27T00:50:56.940Z,29.50
2018-11-27T00:53:26.120Z,26.00
2018-11-27T00:55:55.412Z,28.37
2018-11-27T00:58:24.632Z,28.43
2018-11-27T01:00:53.779Z,26.53
2018-11-27T01:03:23.041Z,27.70
2018-11-27T01:05:52.218Z,25.27
2018-11-27T01:08:21.436Z,28.87
2018-11-27T01:10:50.784Z,30.90
2018-11-27T01:13:20.028Z,29.57
2018-11-27T01:15:49.216Z,25.63
2018-11-27T01:18:18.413Z,28.00
2018-11-27T01:20:47.640Z,25.77
2018-11-27T01:23:16.924Z,28.30
2018-11-27T01:25:46.216Z,30.50
2018-11-27T01:28:15.470Z,29.27
2018-11-27T01:30:44.669Z,30.77
2018-11-27T01:33:13.897Z,25.27
2018-11-27T01:35:43.112Z,26.53
2018-11-27T01:38:12.184Z,26.10
2018-11-27T01:40:41.401Z,26.03
2018-11-27T01:43:10.564Z,31.17
2018-11-27T01:45:39.619Z,28.20
2018-11-27T01:48:08.779Z,31.30
2018-11-27T01:50:37.967Z,28.87
2018-11-27T01:53:07.436Z,30.70
2018-11-27T01:55:36.614Z,30.07
2018-11-27T01:58:06.100Z,25.37
2018-11-27T02:00:35.412Z,23.00
2018-11-27T02:03:04.708Z,25.57
2018-11-27T02:05:34.023Z,26.23
2018-11-27T02:08:03.580Z,23.80
2018-11-27T02:10:32.699Z,26.40
2018-11-27T02:13:01.921Z,24.00
2018-11-27T02:15:31.216Z,21.23
2018-11-27T02:18:00.475Z,19.57
2018-11-27T02:20:29.663Z,22.80
2018-11-27T02:22:58.906Z,25.07
2018-11-27T02:25:29.326Z,26.50
2018-11-27T02:27:58.628Z,28.70
2018-11-27T02:30:28.766Z,27.23
2018-11-27T02:32:58.019Z,30.00
2018-11-27T02:35:27.483Z,28.10
2018-11-27T02:37:57.859Z,30.33
2018-11-27T02:40:27.260Z,27.30
2018-11-27T02:42:56.597Z,32.07
2018-11-27T02:45:26.576Z,31.07
2018-11-27T02:47:55.986Z,29.67
2018-11-27T02:50:26.090Z,29.57
2018-11-27T02:52:55.324Z,27.13
2018-11-27T02:55:26.085Z,30.93
2018-11-27T02:57:55.375Z,29.60
2018-11-27T03:00:27.949Z,30.47
2018-11-27T03:02:57.165Z,28.27
2018-11-27T03:05:41.993Z,30.17
2018-11-27T03:08:11.250Z,27.50
2018-11-27T03:10:40.606Z,24.70
2018-11-27T03:13:10.290Z,24.80
2018-11-27T03:15:39.473Z,26.47
2018-11-27T03:18:08.640Z,25.50
2018-11-27T03:20:37.817Z,28.97
2018-11-27T03:23:07.152Z,28.67
2018-11-27T03:25:36.868Z,31.80
2018-11-27T03:28:06.454Z,29.43
2018-11-27T03:30:35.705Z,29.80
2018-11-27T03:33:04.922Z,34.87
2018-11-27T03:35:34.108Z,29.80
2018-11-27T03:38:03.343Z,27.20
2018-11-27T03:40:32.592Z,27.47
2018-11-27T03:43:01.838Z,31.00
2018-11-27T03:45:31.042Z,27.67
2018-11-27T03:48:00.892Z,32.20
2018-11-27T03:50:31.285Z,27.73
2018-11-27T03:53:00.482Z,29.83
2018-11-27T03:55:29.738Z,28.90
2018-11-27T03:57:58.876Z,30.60
2018-11-27T04:00:30.266Z,28.83
2018-11-27T04:03:03.264Z,29.97
2018-11-27T04:05:32.444Z,30.33
2018-11-27T04:08:01.649Z,32.63
2018-11-27T04:10:30.869Z,28.47
2018-11-27T04:13:00.204Z,32.07
2018-11-27T04:15:29.567Z,33.70
2018-11-27T04:17:58.749Z,31.87
2018-11-27T04:20:27.967Z,30.10
2018-11-27T04:22:57.161Z,30.73
2018-11-27T04:25:27.058Z,28.23
2018-11-27T04:27:56.135Z,30.20
2018-11-27T04:30:26.062Z,33.50
2018-11-27T04:32:55.269Z,30.63
2018-11-27T04:35:24.537Z,34.33
2018-11-27T04:37:53.758Z,28.70
2018-11-27T04:40:23.104Z,32.90
2018-11-27T04:42:52.401Z,29.37
2018-11-27T04:45:24.392Z,32.03
2018-11-27T04:47:53.676Z,35.33
2018-11-27T04:50:23.079Z,30.63
2018-11-27T04:52:52.349Z,39.13
2018-11-27T04:55:22.198Z,31.20
2018-11-27T04:57:52.592Z,85.43
2018-11-27T05:00:24.784Z,140.37
2018-11-27T05:02:54.087Z,46.30
2018-11-27T05:05:23.591Z,37.47
2018-11-27T05:07:52.743Z,45.30
2018-11-27T05:10:22.945Z,33.60
2018-11-27T05:12:52.428Z,35.73
2018-11-27T05:15:22.916Z,36.63
2018-11-27T05:17:54.253Z,34.07
2018-11-27T05:20:23.592Z,38.77
2018-11-27T05:22:53.740Z,46.70
2018-11-27T05:25:23.124Z,49.40
2018-11-27T05:27:53.578Z,57.33
2018-11-27T05:30:24.809Z,40.83
2018-11-27T05:32:54.000Z,40.47
2018-11-27T05:35:28.294Z,43.53
2018-11-27T05:37:57.754Z,41.07
2018-11-27T05:40:27.530Z,45.13
2018-11-27T05:42:59.162Z,39.50
2018-11-27T05:45:28.636Z,39.63
2018-11-27T05:47:57.904Z,36.10
2018-11-27T05:50:27.318Z,39.63
2018-11-27T05:52:56.617Z,33.70
2018-11-27T05:55:26.091Z,38.60
2018-11-27T05:57:55.980Z,39.93
2018-11-27T06:00:26.057Z,36.90
2018-11-27T06:02:57.470Z,44.27
2018-11-27T06:05:25.667Z,35.20
2018-11-27T06:07:54.912Z,38.03
2018-11-27T06:10:24.490Z,31.23
2018-11-27T06:12:53.751Z,34.13
2018-11-27T06:15:24.040Z,32.43
2018-11-27T06:17:56.015Z,38.47
2018-11-27T06:20:25.277Z,36.60
2018-11-27T06:22:54.872Z,39.63
2018-11-27T06:25:28.089Z,35.87
2018-11-27T06:27:58.745Z,79.57
2018-11-27T06:30:29.066Z,33.97
2018-11-27T06:32:58.375Z,40.40
2018-11-27T06:35:30.604Z,41.97
2018-11-27T06:37:59.868Z,79.33
2018-11-27T06:40:30.388Z,38.40
2018-11-27T06:42:59.904Z,66.70
2018-11-27T06:45:29.372Z,39.67
2018-11-27T06:47:58.680Z,55.73
2018-11-27T06:50:27.864Z,45.23
2018-11-27T06:52:57.148Z,49.93
2018-11-27T06:55:26.380Z,42.00
2018-11-27T06:57:55.657Z,43.23
2018-11-27T07:00:30.228Z,45.33
2018-11-27T07:02:59.887Z,263.27
2018-11-27T07:05:29.280Z,49.47
2018-11-27T07:07:58.422Z,56.17
2018-11-27T07:10:30.680Z,195.40
2018-11-27T07:13:16.471Z,139.83
2018-11-27T07:15:45.538Z,73.17
2018-11-27T07:18:14.738Z,257.90
2018-11-27T07:20:43.880Z,399.13
2018-11-27T07:23:12.875Z,315.07
2018-11-27T07:25:42.144Z,73.73
2018-11-27T07:28:11.568Z,60.23
2018-11-27T07:30:41.820Z,111.10
2018-11-27T07:33:11.075Z,77.77
2018-11-27T07:35:40.308Z,84.27
2018-11-27T07:38:09.596Z,65.27
2018-11-27T07:40:38.676Z,72.73
2018-11-27T07:43:11.168Z,61.83
2018-11-27T07:45:40.754Z,59.17
2018-11-27T07:48:10.652Z,56.27
2018-11-27T07:50:39.768Z,148.47
2018-11-27T07:53:09.071Z,88.67
2018-11-27T07:55:38.286Z,54.50
2018-11-27T07:58:07.847Z,83.07
2018-11-27T08:00:37.229Z,45.50
2018-11-27T08:03:07.362Z,59.57
2018-11-27T08:05:41.485Z,60.80
2018-11-27T08:08:14.014Z,62.60
2018-11-27T08:10:43.885Z,48.47
2018-11-27T08:13:13.077Z,60.07
2018-11-27T08:15:42.334Z,50.80
2018-11-27T08:18:12.419Z,83.80
2018-11-27T08:20:41.671Z,60.27
2018-11-27T08:23:11.735Z,138.13
2018-11-27T08:25:40.872Z,69.17
2018-11-27T08:28:09.963Z,59.30
2018-11-27T08:30:39.236Z,56.10
2018-11-27T08:33:08.524Z,59.17
2018-11-27T08:35:37.728Z,57.27
2018-11-27T08:38:07.024Z,57.03
2018-11-27T08:40:37.184Z,221.50
2018-11-27T08:43:07.459Z,51.30
2018-11-27T08:45:36.548Z,56.73
2018-11-27T08:48:05.952Z,53.13
2018-11-27T08:50:35.123Z,57.87
2018-11-27T08:53:05.890Z,75.53
2018-11-27T08:55:40.322Z,52.03
2018-11-27T08:58:22.160Z,52.67
2018-11-27T09:00:51.475Z,128.37
2018-11-27T09:03:20.584Z,77.53
2018-11-27T09:05:49.769Z,58.47
2018-11-27T09:08:18.921Z,55.13
2018-11-27T09:10:48.079Z,53.80
2018-11-27T09:13:17.412Z,52.47
2018-11-27T09:15:46.545Z,79.40
2018-11-27T09:18:25.204Z,53.33
2018-11-27T09:20:54.424Z,51.43
2018-11-27T09:23:23.604Z,82.87
2018-11-27T09:25:52.733Z,57.67
2018-11-27T09:28:21.995Z,54.43
2018-11-27T09:30:51.181Z,55.97
2018-11-27T09:33:20.445Z,51.83
2018-11-27T09:35:49.706Z,49.43
2018-11-27T09:38:18.973Z,54.07
2018-11-27T09:40:48.212Z,56.23
2018-11-27T09:43:17.437Z,43.70
2018-11-27T09:45:47.444Z,41.97
2018-11-27T09:48:16.520Z,41.07
2018-11-27T09:50:45.680Z,40.47
2018-11-27T09:53:15.985Z,50.80
2018-11-27T09:55:45.680Z,41.50
2018-11-27T09:58:14.872Z,55.60
2018-11-27T10:00:44.227Z,44.53
2018-11-27T10:03:14.677Z,42.23
2018-11-27T10:05:43.916Z,40.80
2018-11-27T10:08:13.233Z,44.87
2018-11-27T10:10:42.456Z,47.67
2018-11-27T10:13:11.799Z,43.53
2018-11-27T10:15:40.979Z,48.63
2018-11-27T10:18:10.268Z,45.80
2018-11-27T10:20:41.691Z,42.37
2018-11-27T10:23:12.167Z,37.23
2018-11-27T10:25:41.329Z,42.67
2018-11-27T10:28:10.473Z,39.23
2018-11-27T10:30:39.697Z,41.67
2018-11-27T10:33:10.178Z,39.97
2018-11-27T10:35:46.285Z,40.87
2018-11-27T10:38:15.529Z,40.33
2018-11-27T10:40:45.008Z,46.50
2018-11-27T10:43:19.472Z,39.07
2018-11-27T10:45:43.501Z,40.33
2018-11-27T10:48:12.684Z,39.83
2018-11-27T10:50:42.035Z,44.53
2018-11-27T10:53:12.328Z,38.60
2018-11-27T10:55:41.524Z,39.50
2018-11-27T10:58:10.712Z,44.50
2018-11-27T11:00:45.829Z,38.60
2018-11-27T11:03:45.085Z,38.60
2018-11-27T11:06:14.340Z,40.33
2018-11-27T11:08:43.467Z,39.83
2018-11-27T11:11:12.728Z,39.60
2018-11-27T11:13:42.016Z,36.10
2018-11-27T11:16:11.291Z,36.00
2018-11-27T11:18:40.531Z,35.33
2018-11-27T11:21:09.735Z,34.13
2018-11-27T11:23:39.024Z,38.63
2018-11-27T11:26:08.948Z,64.03
2018-11-27T11:28:38.155Z,79.33
2018-11-27T11:31:07.718Z,43.70
2018-11-27T11:33:36.961Z,35.13
2018-11-27T11:36:06.632Z,37.60
2018-11-27T11:38:35.934Z,33.17
2018-11-27T11:41:05.593Z,35.87
2018-11-27T11:43:34.825Z,31.60
2018-11-27T11:46:03.940Z,38.27
2018-11-27T11:48:33.159Z,32.13
2018-11-27T11:51:02.417Z,35.90
2018-11-27T11:53:31.688Z,34.90
2018-11-27T11:56:00.886Z,34.33
2018-11-27T11:58:30.112Z,45.83
2018-11-27T12:00:59.306Z,33.03
2018-11-27T12:03:28.627Z,36.67
2018-11-27T12:05:57.868Z,35.93
2018-11-27T12:08:27.189Z,39.93
2018-11-27T12:10:56.362Z,38.43
2018-11-27T12:13:25.592Z,32.47
2018-11-27T12:15:54.829Z,36.50
2018-11-27T12:18:23.956Z,39.23
2018-11-27T12:20:53.184Z,37.83
2018-11-27T12:23:22.459Z,37.67
2018-11-27T12:25:51.720Z,34.90
2018-11-27T12:28:20.972Z,35.57
2018-11-27T12:30:50.264Z,38.03
2018-11-27T12:33:19.568Z,36.83
2018-11-27T12:35:48.805Z,34.10
2018-11-27T12:38:18.041Z,37.10
2018-11-27T12:40:47.199Z,38.50
2018-11-27T12:43:16.251Z,37.63
2018-11-27T12:45:45.356Z,35.07
2018-11-27T12:48:14.512Z,33.07
2018-11-27T12:50:47.211Z,40.87
2018-11-27T12:53:17.286Z,35.23
2018-11-27T12:55:48.787Z,34.43
2018-11-27T12:58:18.058Z,36.27
2018-11-27T13:00:47.273Z,37.60
2018-11-27T13:03:16.456Z,35.93
2018-11-27T13:05:46.546Z,42.50
2018-11-27T13:08:21.589Z,34.50
2018-11-27T13:10:51.123Z,41.20
2018-11-27T13:13:20.387Z,35.53
2018-11-27T13:15:50.298Z,38.07
2018-11-27T13:18:19.593Z,38.40
2018-11-27T13:20:48.743Z,34.40
2018-11-27T13:23:17.989Z,33.90
2018-11-27T13:25:47.593Z,36.60
2018-11-27T13:28:16.779Z,38.07
2018-11-27T13:30:52.075Z,36.80
2018-11-27T13:33:44.883Z,37.07
2018-11-27T13:36:14.064Z,37.23
2018-11-27T13:38:43.332Z,42.40
2018-11-27T13:41:12.508Z,38.07
2018-11-27T13:43:41.712Z,37.90
2018-11-27T13:46:11.171Z,37.60
2018-11-27T13:48:40.584Z,37.20
2018-11-27T13:51:09.843Z,42.53
2018-11-27T13:53:39.012Z,37.93
2018-11-27T13:56:08.116Z,39.73
2018-11-27T13:58:37.300Z,40.13
2018-11-27T14:01:06.768Z,43.27
2018-11-27T14:03:36.024Z,42.47
2018-11-27T14:06:05.413Z,38.13
2018-11-27T14:08:34.694Z,37.60
2018-11-27T14:11:03.928Z,39.10
2018-11-27T14:13:33.234Z,37.70
2018-11-27T14:16:02.528Z,35.80
2018-11-27T14:18:31.620Z,38.57
2018-11-27T14:21:00.737Z,41.00
2018-11-27T14:23:30.033Z,45.93
2018-11-27T14:25:59.355Z,37.00
2018-11-27T14:28:28.580Z,40.63
2018-11-27T14:30:57.532Z,40.80
2018-11-27T14:33:26.609Z,38.73
2018-11-27T14:35:55.675Z,45.00
2018-11-27T14:38:24.723Z,43.97
2018-11-27T14:40:53.935Z,45.00
2018-11-27T14:43:23.166Z,42.67
2018-11-27T14:45:52.310Z,43.57
2018-11-27T14:48:22.284Z,41.20
2018-11-27T14:50:51.430Z,46.50
2018-11-27T14:53:20.708Z,38.50
2018-11-27T14:55:49.921Z,39.60
2018-11-27T14:58:19.067Z,43.30
2018-11-27T15:00:48.224Z,46.00
2018-11-27T15:03:17.519Z,41.47
2018-11-27T15:05:46.776Z,44.83
2018-11-27T15:08:15.994Z,44.93
2018-11-27T15:10:45.164Z,47.93
2018-11-27T15:13:14.689Z,45.93
2018-11-27T15:15:43.873Z,42.30
2018-11-27T15:18:13.064Z,42.27
2018-11-27T15:20:42.189Z,46.43
2018-11-27T15:23:11.368Z,41.30
2018-11-27T15:25:40.627Z,43.40
2018-11-27T15:28:09.744Z,43.87
2018-11-27T15:30:39.429Z,43.93
2018-11-27T15:33:09.096Z,42.30
2018-11-27T15:35:38.490Z,43.93
2018-11-27T15:38:08.111Z,42.23
2018-11-27T15:40:38.234Z,45.23
2018-11-27T15:43:07.509Z,44.67
2018-11-27T15:45:36.803Z,50.77
2018-11-27T15:48:08.177Z,43.27
2018-11-27T15:50:37.419Z,44.37
2018-11-27T15:53:06.848Z,46.33
2018-11-27T15:55:37.471Z,47.77
2018-11-27T15:58:10.896Z,47.90
2018-11-27T16:00:40.733Z,46.83
2018-11-27T16:03:09.923Z,45.97
2018-11-27T16:05:39.976Z,45.47
2018-11-27T16:08:09.256Z,43.00
2018-11-27T16:10:38.369Z,45.43
2018-11-27T16:13:08.581Z,46.23
2018-11-27T16:15:38.217Z,52.70
2018-11-27T16:18:08.224Z,51.00
2018-11-27T16:20:37.444Z,42.57
2018-11-27T16:23:06.785Z,41.90
2018-11-27T16:25:35.843Z,44.83
2018-11-27T16:28:05.025Z,45.57
2018-11-27T16:30:34.360Z,44.43
2018-11-27T16:33:03.865Z,41.70
2018-11-27T16:35:33.053Z,44.80
2018-11-27T16:38:02.225Z,44.73
2018-11-27T16:40:36.484Z,42.33
2018-11-27T16:43:06.503Z,46.53
2018-11-27T16:45:35.674Z,46.43
2018-11-27T16:48:04.943Z,45.30
2018-11-27T16:50:34.160Z,39.90
2018-11-27T16:53:03.126Z,42.87
2018-11-27T16:55:32.928Z,45.37
2018-11-27T16:58:02.142Z,42.97
2018-11-27T17:00:33.181Z,49.03
2018-11-27T17:03:04.342Z,42.07
2018-11-27T17:05:35.392Z,47.93
2018-11-27T17:08:04.617Z,43.03
2018-11-27T17:10:33.822Z,46.83
2018-11-27T17:13:04.026Z,48.03
2018-11-27T17:15:33.371Z,49.13
2018-11-27T17:18:02.560Z,48.33
2018-11-27T17:20:35.279Z,45.47
2018-11-27T17:23:12.548Z,48.07
2018-11-27T17:25:41.791Z,56.83
2018-11-27T17:28:22.213Z,45.50
2018-11-27T17:30:57.696Z,43.97
2018-11-27T17:33:30.908Z,48.47
2018-11-27T17:36:00.141Z,42.63
2018-11-27T17:38:29.351Z,46.87
2018-11-27T17:40:58.455Z,47.93
2018-11-27T17:43:27.737Z,48.10
2018-11-27T17:45:56.956Z,51.17
2018-11-27T17:48:26.257Z,47.27
2018-11-27T17:50:55.496Z,49.73
2018-11-27T17:53:24.712Z,49.37
2018-11-27T17:55:54.104Z,47.70
2018-11-27T17:58:23.281Z,43.23
2018-11-27T18:00:52.447Z,49.80
2018-11-27T18:03:21.797Z,46.30
2018-11-27T18:05:50.920Z,51.50
2018-11-27T18:08:19.991Z,50.57
2018-11-27T18:10:49.147Z,48.33
2018-11-27T18:13:18.310Z,48.27
2018-11-27T18:15:47.531Z,51.17
2018-11-27T18:18:16.844Z,47.10
2018-11-27T18:20:46.027Z,42.80
2018-11-27T18:23:15.189Z,42.57
2018-11-27T18:25:44.338Z,40.73
2018-11-27T18:28:14.112Z,38.60
2018-11-27T18:30:43.360Z,32.17
2018-11-27T18:33:12.677Z,33.97
2018-11-27T18:35:41.824Z,35.10
2018-11-27T18:38:11.052Z,33.77
2018-11-27T18:40:40.247Z,34.77
2018-11-27T18:43:09.433Z,35.37
2018-11-27T18:45:38.725Z,46.63
2018-11-27T18:48:07.971Z,34.33
2018-11-27T18:50:37.244Z,107.30
2018-11-27T18:53:06.891Z,37.20
2018-11-27T18:55:36.099Z,36.10
2018-11-27T18:58:05.493Z,35.20
2018-11-27T19:00:35.212Z,37.13
2018-11-27T19:03:04.534Z,36.77
2018-11-27T19:05:34.406Z,44.30
2018-11-27T19:08:03.628Z,39.93
2018-11-27T19:10:33.839Z,40.17
2018-11-27T19:13:03.637Z,45.60
2018-11-27T19:15:34.716Z,37.77
2018-11-27T19:18:10.471Z,33.40
2018-11-27T19:20:39.832Z,29.57
2018-11-27T19:23:10.359Z,32.53
2018-11-27T19:25:39.795Z,32.50
2018-11-27T19:28:10.381Z,31.00
2018-11-27T19:30:39.812Z,34.97
2018-11-27T19:33:09.540Z,35.50
2018-11-27T19:35:38.984Z,40.63
2018-11-27T19:38:10.026Z,32.13
2018-11-27T19:40:39.421Z,37.13
2018-11-27T19:43:08.642Z,42.00
2018-11-27T19:45:37.993Z,45.77
2018-11-27T19:48:08.479Z,42.47
2018-11-27T19:50:37.911Z,47.73
2018-11-27T19:53:12.231Z,44.20
2018-11-27T19:55:39.202Z,43.77
2018-11-27T19:58:09.068Z,45.87
2018-11-27T20:00:38.923Z,47.07
2018-11-27T20:03:10.538Z,46.50
2018-11-27T20:05:39.847Z,48.03
2018-11-27T20:08:18.672Z,47.20
2018-11-27T20:10:47.792Z,43.37
2018-11-27T20:13:16.892Z,48.03
2018-11-27T20:15:46.270Z,44.43
2018-11-27T20:18:15.563Z,40.47
2018-11-27T20:20:44.695Z,43.73
2018-11-27T20:23:14.975Z,47.77
2018-11-27T20:25:44.833Z,43.47
2018-11-27T20:28:14.227Z,45.10
2018-11-27T20:30:43.631Z,43.17
2018-11-27T20:33:13.110Z,41.73
2018-11-27T20:35:42.412Z,41.60
2018-11-27T20:38:12.267Z,40.70
2018-11-27T20:40:42.248Z,40.40
2018-11-27T20:43:11.624Z,39.20
2018-11-27T20:45:43.793Z,37.87
2018-11-27T20:48:19.774Z,42.37
2018-11-27T20:50:51.916Z,37.87
2018-11-27T20:53:21.366Z,39.43
2018-11-27T20:55:50.741Z,42.20
2018-11-27T20:58:20.128Z,38.43
2018-11-27T21:00:51.095Z,39.30
2018-11-27T21:03:20.484Z,39.57
2018-11-27T21:05:49.817Z,40.50
2018-11-27T21:08:19.285Z,48.50
2018-11-27T21:10:48.420Z,53.77
2018-11-27T21:13:18.274Z,41.80
2018-11-27T21:15:47.542Z,41.53
2018-11-27T21:18:16.726Z,43.23
2018-11-27T21:20:45.876Z,38.77
2018-11-27T21:23:15.004Z,39.80
2018-11-27T21:25:44.112Z,42.30
2018-11-27T21:28:17.521Z,43.43
2018-11-27T21:30:48.456Z,37.90
2018-11-27T21:33:17.716Z,39.33
2018-11-27T21:35:46.912Z,35.50
2018-11-27T21:38:16.512Z,27.10
2018-11-27T21:40:45.732Z,28.83
2018-11-27T21:43:14.965Z,33.43
2018-11-27T21:45:44.256Z,23.30
2018-11-27T21:48:13.515Z,20.97
2018-11-27T21:50:43.464Z,29.17
2018-11-27T21:53:12.677Z,24.67
2018-11-27T21:55:42.540Z,34.67
2018-11-27T21:58:11.741Z,21.47
2018-11-27T22:00:42.158Z,24.50
2018-11-27T22:03:12.287Z,23.67
2018-11-27T22:05:41.484Z,29.63
2018-11-27T22:08:11.612Z,19.37
2018-11-27T22:10:40.860Z,21.73
2018-11-27T22:13:12.763Z,21.03
2018-11-27T22:15:42.976Z,16.53
2018-11-27T22:18:12.935Z,21.57
2018-11-27T22:20:42.292Z,16.57
2018-11-27T22:23:11.393Z,19.27
2018-11-27T22:25:40.677Z,17.70
2018-11-27T22:28:10.094Z,16.00
2018-11-27T22:30:39.417Z,17.23
2018-11-27T22:33:09.328Z,18.23
2018-11-27T22:35:38.734Z,17.53
2018-11-27T22:38:08.666Z,19.90
2018-11-27T22:40:37.771Z,14.93
2018-11-27T22:43:07.859Z,16.37
2018-11-27T22:45:40.354Z,16.43
2018-11-27T22:48:12.250Z,14.63
2018-11-27T22:50:40.928Z,16.57
2018-11-27T22:53:10.480Z,16.47
2018-11-27T22:55:39.592Z,16.07
2018-11-27T22:58:09.175Z,15.50
2018-11-27T23:00:43.600Z,16.33
2018-11-27T23:03:12.798Z,14.67
2018-11-27T23:05:42.041Z,19.23
2018-11-27T23:08:11.280Z,16.00
2018-11-27T23:10:41.844Z,16.87
2018-11-27T23:13:11.114Z,18.77
2018-11-27T23:15:40.578Z,18.57
2018-11-27T23:18:09.817Z,18.67
2018-11-27T23:20:39.317Z,14.77
2018-11-27T23:23:08.604Z,15.23
2018-11-27T23:25:37.774Z,18.93
2018-11-27T23:28:07.014Z,18.50
2018-11-27T23:30:36.320Z,17.83
2018-11-27T23:33:05.840Z,18.10
2018-11-27T23:35:34.947Z,19.63
2018-11-27T23:38:04.173Z,20.87
2018-11-27T23:40:33.284Z,21.93
2018-11-27T23:43:03.720Z,23.10
2018-11-27T23:45:31.821Z,24.50
2018-11-27T23:48:00.857Z,26.03
2018-11-27T23:50:30.056Z,25.93
2018-11-27T23:52:59.368Z,28.23
2018-11-27T23:55:28.620Z,34.53
2018-11-27T23:57:59.044Z,31.57
